createdAt,value
2024-02-19T00:02:50.510Z,2.55
2024-02-19T00:05:56.741Z,1.90
2024-02-19T00:09:01.997Z,1.92
2024-02-19T00:12:10.547Z,1.80
2024-02-19T00:15:16.002Z,2.95
2024-02-19T00:18:22.439Z,3.08
2024-02-19T00:21:27.848Z,1.95
2024-02-19T00:24:33.425Z,3.92
2024-02-19T00:27:41.425Z,2.45
2024-02-19T00:30:46.963Z,3.53
2024-02-19T00:33:52.424Z,2.83
2024-02-19T00:36:58.475Z,3.08
2024-02-19T00:40:04.605Z,3.50
2024-02-19T00:43:12.867Z,2.53
2024-02-19T00:49:24.003Z,2.10
2024-02-19T00:52:29.771Z,2.47
2024-02-19T00:55:35.252Z,4.03
2024-02-19T00:58:43.474Z,3.50
2024-02-19T01:01:48.996Z,2.05
2024-02-19T01:04:55.107Z,1.48
2024-02-19T01:08:00.504Z,2.65
2024-02-19T01:11:06.319Z,2.47
2024-02-19T01:14:14.304Z,2.92
2024-02-19T01:17:20.500Z,2.75
2024-02-19T01:20:25.796Z,2.35
2024-02-19T01:23:31.216Z,1.95
2024-02-19T01:26:37.014Z,3.35
2024-02-19T01:29:45.228Z,1.23
2024-02-19T01:32:50.591Z,1.85
2024-02-19T01:35:56.110Z,1.33
2024-02-19T01:39:01.353Z,1.98
2024-02-19T01:42:07.477Z,5.20
2024-02-19T01:45:29.946Z,2.47
2024-02-19T01:48:36.137Z,2.50
2024-02-19T01:51:42.796Z,4.25
2024-02-19T01:54:48.593Z,1.52
2024-02-19T01:57:54.202Z,1.50
2024-02-19T02:01:02.555Z,2.45
2024-02-19T02:07:13.102Z,2.00
2024-02-19T02:10:19.819Z,1.00
2024-02-19T02:13:25.502Z,1.63
2024-02-19T02:16:33.421Z,5.85
2024-02-19T02:19:43.197Z,4.43
2024-02-19T02:22:48.669Z,1.58
2024-02-19T02:25:54.800Z,1.17
2024-02-19T02:29:02.660Z,2.42
2024-02-19T02:32:08.381Z,1.25
2024-02-19T02:35:13.811Z,0.88
2024-02-19T02:38:20.020Z,2.08
2024-02-19T02:41:25.289Z,1.02
2024-02-19T02:44:33.463Z,0.65
2024-02-19T02:50:44.249Z,0.55
2024-02-19T02:53:49.655Z,1.13
2024-02-19T02:56:55.177Z,1.73
2024-02-19T03:00:03.107Z,1.52
2024-02-19T03:06:14.061Z,3.00
2024-02-19T03:09:19.665Z,3.15
2024-02-19T03:12:25.016Z,1.27
2024-02-19T03:15:33.201Z,3.92
2024-02-19T03:18:38.982Z,3.67
2024-02-19T03:21:45.334Z,2.95
2024-02-19T03:24:50.646Z,1.58
2024-02-19T03:27:56.403Z,2.47
2024-02-19T03:31:04.281Z,2.35
2024-02-19T03:34:10.048Z,1.02
2024-02-19T03:37:17.354Z,2.33
2024-02-19T03:40:23.261Z,1.80
2024-02-19T03:43:31.319Z,2.63
2024-02-19T03:46:39.678Z,5.90
2024-02-19T03:49:45.256Z,2.33
2024-02-19T03:52:50.643Z,1.45
2024-02-19T03:55:56.761Z,1.02
2024-02-19T03:59:02.031Z,2.78
2024-02-19T04:02:10.152Z,1.33
2024-02-19T04:05:15.461Z,1.55
2024-02-19T04:08:20.917Z,2.47
2024-02-19T04:11:26.238Z,1.40
2024-02-19T04:14:31.728Z,2.92
2024-02-19T04:17:39.839Z,4.40
2024-02-19T04:20:45.316Z,3.53
2024-02-19T04:23:50.625Z,1.88
2024-02-19T04:26:56.160Z,3.58
2024-02-19T04:30:01.488Z,3.20
2024-02-19T04:33:10.207Z,3.13
2024-02-19T04:36:15.654Z,4.75
2024-02-19T04:39:21.266Z,4.05
2024-02-19T04:42:26.562Z,2.95
2024-02-19T04:45:31.999Z,2.38
2024-02-19T04:48:41.105Z,3.03
2024-02-19T04:51:46.719Z,4.07
2024-02-19T04:54:52.471Z,2.97
2024-02-19T04:57:58.108Z,3.83
2024-02-19T05:01:04.916Z,2.55
2024-02-19T05:04:13.381Z,3.38
2024-02-19T05:07:19.167Z,4.47
2024-02-19T05:10:25.207Z,4.10
2024-02-19T05:13:30.635Z,3.78
2024-02-19T05:16:36.192Z,3.67
2024-02-19T05:19:44.638Z,4.03
2024-02-19T05:22:50.626Z,2.55
2024-02-19T05:25:55.879Z,2.50
2024-02-19T05:29:01.316Z,3.05
2024-02-19T05:32:06.948Z,2.42
2024-02-19T05:35:15.301Z,3.10
2024-02-19T05:38:21.104Z,4.72
2024-02-19T05:41:26.637Z,3.83
2024-02-19T05:44:32.165Z,2.72
2024-02-19T05:47:38.082Z,3.13
2024-02-19T05:50:46.395Z,3.03
2024-02-19T05:53:51.754Z,3.83
2024-02-19T05:56:57.226Z,3.45
2024-02-19T06:00:02.551Z,4.15
2024-02-19T06:03:12.867Z,3.83
2024-02-19T06:06:20.906Z,4.18
2024-02-19T06:09:26.310Z,3.80
2024-02-19T06:12:31.579Z,5.35
2024-02-19T06:15:37.116Z,8.02
2024-02-19T06:18:42.501Z,4.35
2024-02-19T06:21:50.863Z,3.45
2024-02-19T06:28:03.748Z,5.05
2024-02-19T06:31:09.598Z,4.68
2024-02-19T06:34:15.268Z,3.88
2024-02-19T06:37:23.753Z,6.35
2024-02-19T06:40:29.176Z,8.20
2024-02-19T06:43:34.746Z,4.32
2024-02-19T06:46:40.062Z,5.40
2024-02-19T06:49:45.681Z,3.00
2024-02-19T06:52:53.656Z,7.47
2024-02-19T06:55:59.307Z,4.55
2024-02-19T06:59:05.033Z,8.30
2024-02-19T07:02:10.639Z,3.70
2024-02-19T07:05:16.126Z,3.90
2024-02-19T07:08:24.758Z,4.47
2024-02-19T07:11:30.074Z,2.80
2024-02-19T07:14:35.682Z,5.07
2024-02-19T07:17:41.068Z,7.15
2024-02-19T07:20:46.686Z,4.38
2024-02-19T07:23:54.555Z,7.97
2024-02-19T07:27:00.027Z,5.75
2024-02-19T07:30:06.498Z,2.50
2024-02-19T07:33:12.299Z,15.52
2024-02-19T07:36:17.607Z,4.82
2024-02-19T07:39:25.840Z,6.43
2024-02-19T07:42:31.085Z,9.35
2024-02-19T07:45:36.809Z,3.50
2024-02-19T07:48:42.274Z,4.20
2024-02-19T07:51:47.830Z,5.15
2024-02-19T07:54:56.001Z,4.35
2024-02-19T07:58:01.526Z,3.97
2024-02-19T08:01:08.138Z,5.93
2024-02-19T08:04:13.822Z,4.63
2024-02-19T08:07:20.019Z,6.00
2024-02-19T08:10:28.304Z,10.35
2024-02-19T08:16:39.824Z,5.75
2024-02-19T08:19:46.131Z,5.47
2024-02-19T08:22:52.032Z,4.53
2024-02-19T08:26:00.666Z,3.92
2024-02-19T08:29:07.668Z,3.30
2024-02-19T08:32:13.256Z,5.80
2024-02-19T08:35:18.844Z,3.75
2024-02-19T08:38:24.242Z,3.92
2024-02-19T08:41:34.171Z,4.82
2024-02-19T08:44:39.485Z,4.78
2024-02-19T08:47:45.007Z,6.35
2024-02-19T08:50:54.019Z,6.65
2024-02-19T08:54:00.369Z,11.65
2024-02-19T08:57:08.902Z,6.18
2024-02-19T09:00:15.117Z,5.40
2024-02-19T09:03:20.502Z,2.97
2024-02-19T09:06:26.005Z,5.25
2024-02-19T09:09:31.293Z,6.32
2024-02-19T09:12:39.369Z,6.05
2024-02-19T09:15:45.812Z,5.78
2024-02-19T09:18:51.470Z,4.10
2024-02-19T09:21:58.106Z,4.88
2024-02-19T09:25:04.238Z,3.47
2024-02-19T09:28:12.185Z,7.80
2024-02-19T09:31:18.049Z,4.45
2024-02-19T09:34:23.693Z,8.40
2024-02-19T09:37:29.253Z,5.25
2024-02-19T09:40:36.085Z,4.55
2024-02-19T09:43:44.183Z,5.95
2024-02-19T09:46:49.762Z,7.18
2024-02-19T09:49:55.475Z,6.18
2024-02-19T09:53:05.219Z,6.20
2024-02-19T09:56:15.280Z,3.70
2024-02-19T09:59:23.237Z,4.40
2024-02-19T10:02:28.730Z,5.25
2024-02-19T10:05:34.201Z,4.65
2024-02-19T10:08:39.776Z,6.95
2024-02-19T10:11:45.322Z,7.30
2024-02-19T10:14:53.405Z,5.13
2024-02-19T10:17:58.774Z,4.15
2024-02-19T10:21:04.287Z,3.80
2024-02-19T10:24:10.408Z,6.57
2024-02-19T10:27:16.959Z,6.90
2024-02-19T10:30:25.041Z,10.00
2024-02-19T10:33:30.762Z,7.63
2024-02-19T10:36:36.955Z,5.30
2024-02-19T10:39:42.464Z,4.53
2024-02-19T10:42:47.917Z,10.55
2024-02-19T10:45:56.104Z,5.00
2024-02-19T10:49:01.607Z,6.10
2024-02-19T10:52:08.965Z,6.68
2024-02-19T10:55:19.922Z,5.15
2024-02-19T10:58:30.606Z,8.35
2024-02-19T11:01:46.350Z,5.13
2024-02-19T11:04:54.486Z,7.53
2024-02-19T11:07:59.793Z,6.25
2024-02-19T11:11:07.234Z,5.18
2024-02-19T11:14:12.538Z,8.40
2024-02-19T11:17:21.000Z,8.88
2024-02-19T11:20:30.180Z,6.05
2024-02-19T11:23:35.688Z,10.15
2024-02-19T11:26:43.589Z,7.68
2024-02-19T11:29:49.055Z,5.78
2024-02-19T11:33:05.292Z,9.07
2024-02-19T11:36:12.193Z,6.07
2024-02-19T11:39:17.476Z,6.68
2024-02-19T11:42:24.481Z,7.18
2024-02-19T11:45:30.237Z,5.15
2024-02-19T11:48:38.642Z,7.28
2024-02-19T11:51:45.734Z,6.53
2024-02-19T11:54:57.298Z,5.00
2024-02-19T11:58:04.032Z,5.55
2024-02-19T12:01:10.439Z,8.75
2024-02-19T12:04:18.369Z,7.18
2024-02-19T12:07:24.354Z,3.53
2024-02-19T12:10:30.099Z,4.85
2024-02-19T12:13:37.744Z,3.45
2024-02-19T12:16:44.138Z,2.73
2024-02-19T12:19:55.308Z,4.88
2024-02-19T12:23:02.220Z,3.10
2024-02-19T12:26:09.464Z,4.55
2024-02-19T12:29:15.500Z,3.95
2024-02-19T12:32:21.001Z,4.47
2024-02-19T12:35:29.188Z,5.55
2024-02-19T12:38:34.524Z,4.38
2024-02-19T12:41:40.274Z,6.25
2024-02-19T12:44:46.071Z,7.85
2024-02-19T12:47:52.003Z,5.35
2024-02-19T12:51:00.565Z,4.03
2024-02-19T12:57:11.360Z,6.57
2024-02-19T13:00:17.273Z,4.78
2024-02-19T13:03:22.516Z,5.28
2024-02-19T13:06:31.645Z,3.03
2024-02-19T13:09:37.252Z,4.80
2024-02-19T13:12:42.749Z,3.67
2024-02-19T13:15:50.528Z,3.60
2024-02-19T13:18:56.352Z,5.30
2024-02-19T13:22:04.936Z,5.15
2024-02-19T13:25:11.533Z,6.05
2024-02-19T13:28:16.976Z,4.97
2024-02-19T13:31:22.750Z,4.07
2024-02-19T13:34:28.641Z,5.00
2024-02-19T13:37:37.713Z,3.45
2024-02-19T13:40:43.369Z,7.07
2024-02-19T13:43:49.042Z,6.55
2024-02-19T13:46:54.743Z,3.35
2024-02-19T13:50:00.572Z,2.53
2024-02-19T13:53:12.199Z,4.78
2024-02-19T13:56:17.849Z,6.55
2024-02-19T13:59:23.359Z,6.03
2024-02-19T14:02:28.969Z,6.35
2024-02-19T14:05:34.788Z,4.95
2024-02-19T14:08:43.274Z,8.85
2024-02-19T14:11:49.299Z,3.47
2024-02-19T14:14:54.845Z,4.78
2024-02-19T14:18:00.497Z,5.72
2024-02-19T14:21:12.023Z,5.88
2024-02-19T14:24:20.255Z,5.43
2024-02-19T14:27:25.556Z,9.90
2024-02-19T14:30:31.135Z,5.88
2024-02-19T14:33:36.606Z,7.22
2024-02-19T14:36:42.708Z,5.07
2024-02-19T14:39:51.534Z,3.63
2024-02-19T14:42:58.491Z,13.27
2024-02-19T14:46:07.976Z,7.45
2024-02-19T14:49:14.014Z,5.40
2024-02-19T14:52:19.412Z,3.72
2024-02-19T14:55:27.694Z,3.67
2024-02-19T14:58:33.710Z,3.63
2024-02-19T15:01:39.504Z,5.35
2024-02-19T15:04:44.995Z,5.22
2024-02-19T15:07:55.975Z,3.67
2024-02-19T15:11:05.376Z,5.28
2024-02-19T15:14:11.640Z,3.55
2024-02-19T15:17:17.271Z,3.83
2024-02-19T15:20:23.295Z,3.97
2024-02-19T15:23:29.472Z,4.47
2024-02-19T15:30:11.577Z,5.05
2024-02-19T15:33:16.877Z,3.60
2024-02-19T15:36:22.681Z,5.35
2024-02-19T15:39:27.939Z,8.45
2024-02-19T15:42:38.215Z,4.72
2024-02-19T15:45:46.061Z,6.15
2024-02-19T15:48:51.404Z,7.35
2024-02-19T15:51:56.770Z,5.68
2024-02-19T15:55:02.488Z,7.22
2024-02-19T15:58:08.141Z,5.15
2024-02-19T16:01:16.067Z,7.72
2024-02-19T16:04:23.891Z,9.40
2024-02-19T16:07:29.645Z,12.73
2024-02-19T16:10:35.069Z,8.35
2024-02-19T16:13:41.240Z,7.82
2024-02-19T16:16:49.113Z,8.75
2024-02-19T16:19:55.176Z,9.70
2024-02-19T16:23:00.358Z,14.65
2024-02-19T16:26:07.140Z,13.20
2024-02-19T16:29:14.604Z,10.90
2024-02-19T16:32:22.478Z,9.13
2024-02-19T16:35:31.349Z,9.57
2024-02-19T16:38:39.226Z,11.65
2024-02-19T16:41:44.830Z,12.00
2024-02-19T16:44:50.121Z,11.20
2024-02-19T16:47:58.063Z,13.70
2024-02-19T16:51:03.338Z,15.57
2024-02-19T16:54:10.063Z,23.50
2024-02-19T16:57:15.228Z,13.38
2024-02-19T17:00:21.479Z,9.82
2024-02-19T17:03:29.475Z,11.18
2024-02-19T17:06:34.679Z,12.02
2024-02-19T17:09:40.328Z,14.38
2024-02-19T17:12:46.355Z,13.32
2024-02-19T17:15:51.717Z,17.88
2024-02-19T17:19:00.294Z,15.73
2024-02-19T17:22:05.779Z,16.02
2024-02-19T17:25:11.765Z,13.60
2024-02-19T17:28:21.316Z,16.02
2024-02-19T17:31:28.686Z,12.05
2024-02-19T17:34:36.715Z,13.52
2024-02-19T17:37:42.405Z,19.52
2024-02-19T17:40:47.680Z,13.98
2024-02-19T17:43:53.047Z,18.63
2024-02-19T17:46:58.257Z,13.23
2024-02-19T17:50:06.106Z,19.73
2024-02-19T17:53:11.493Z,16.50
2024-02-19T17:56:16.940Z,16.73
2024-02-19T17:59:22.156Z,17.65
2024-02-19T18:02:27.364Z,18.40
2024-02-19T18:05:35.247Z,13.23
2024-02-19T18:08:40.485Z,16.95
2024-02-19T18:11:45.630Z,18.17
2024-02-19T18:14:51.239Z,13.80
2024-02-19T18:17:58.407Z,24.20
2024-02-19T18:21:06.365Z,15.18
2024-02-19T18:24:11.978Z,14.02
2024-02-19T18:27:17.161Z,15.02
2024-02-19T18:30:22.462Z,13.80
2024-02-19T18:33:30.019Z,18.17
2024-02-19T18:36:38.019Z,13.52
2024-02-19T18:42:48.078Z,13.98
2024-02-19T18:45:53.324Z,9.75
2024-02-19T18:48:59.351Z,11.07
2024-02-19T18:52:07.443Z,14.73
2024-02-19T18:55:12.939Z,10.77
2024-02-19T18:58:18.186Z,11.35
2024-02-19T19:01:24.021Z,11.30
2024-02-19T19:04:29.489Z,10.13
2024-02-19T19:07:37.876Z,14.50
2024-02-19T19:10:44.863Z,11.73
2024-02-19T19:13:50.133Z,12.80
2024-02-19T19:16:55.308Z,21.50
2024-02-19T19:20:00.835Z,14.02
2024-02-19T19:23:08.886Z,11.82
2024-02-19T19:26:14.136Z,12.32
2024-02-19T19:29:19.965Z,19.15
2024-02-19T19:32:27.318Z,14.50
2024-02-19T19:35:34.790Z,20.73
2024-02-19T19:38:42.798Z,30.40
2024-02-19T19:41:48.247Z,17.88
2024-02-19T19:44:53.690Z,19.88
2024-02-19T19:47:58.894Z,16.42
2024-02-19T19:51:04.392Z,19.52
2024-02-19T19:54:12.128Z,15.85
2024-02-19T19:57:17.294Z,19.13
2024-02-19T20:00:22.855Z,16.38
2024-02-19T20:03:28.079Z,18.75
2024-02-19T20:06:33.755Z,15.90
2024-02-19T20:09:43.892Z,16.98
2024-02-19T20:12:51.087Z,24.08
2024-02-19T20:15:56.678Z,22.42
2024-02-19T20:19:02.238Z,20.83
2024-02-19T20:22:07.865Z,23.17
2024-02-19T20:25:17.296Z,23.23
2024-02-19T20:28:23.424Z,18.40
2024-02-19T20:31:28.658Z,18.17
2024-02-19T20:34:35.320Z,20.60
2024-02-19T20:37:40.702Z,22.15
2024-02-19T20:40:48.559Z,23.08
2024-02-19T20:43:53.744Z,22.13
2024-02-19T20:46:59.534Z,19.05
2024-02-19T20:50:05.781Z,19.42
2024-02-19T20:53:14.899Z,21.48
2024-02-19T20:56:22.737Z,18.02
2024-02-19T20:59:28.872Z,24.35
2024-02-19T21:02:35.211Z,20.38
2024-02-19T21:05:40.496Z,26.42
2024-02-19T21:08:45.753Z,27.63
2024-02-19T21:11:54.481Z,26.88
2024-02-19T21:14:59.884Z,24.60
2024-02-19T21:18:10.481Z,22.00
2024-02-19T21:21:26.618Z,28.10
2024-02-19T21:24:39.028Z,22.27
2024-02-19T21:27:46.978Z,30.40
2024-02-19T21:33:57.905Z,28.20
2024-02-19T21:37:03.589Z,24.25
2024-02-19T21:40:10.792Z,25.92
2024-02-19T21:43:18.710Z,24.70
2024-02-19T21:46:23.997Z,20.90
2024-02-19T21:49:29.472Z,25.30
2024-02-19T21:52:34.701Z,28.80
2024-02-19T21:55:39.890Z,29.10
2024-02-19T21:58:47.667Z,21.75
2024-02-19T22:01:52.913Z,25.27
2024-02-19T22:04:58.382Z,23.33
2024-02-19T22:08:04.673Z,30.73
2024-02-19T22:11:10.400Z,24.23
2024-02-19T22:14:18.635Z,26.48
2024-02-19T22:17:23.751Z,28.23
2024-02-19T22:20:29.002Z,26.23
2024-02-19T22:23:34.106Z,33.55
2024-02-19T22:26:39.263Z,29.00
2024-02-19T22:29:46.977Z,29.75
2024-02-19T22:32:52.231Z,26.27
2024-02-19T22:35:57.546Z,24.98
2024-02-19T22:39:02.800Z,25.35
2024-02-19T22:42:08.226Z,23.42
2024-02-19T22:45:16.063Z,29.83
2024-02-19T22:48:21.364Z,28.20
2024-02-19T22:51:26.679Z,20.65
2024-02-19T22:54:32.401Z,28.33
2024-02-19T22:57:37.639Z,23.50
2024-02-19T23:00:47.167Z,23.75
2024-02-19T23:03:52.560Z,25.08
2024-02-19T23:06:58.932Z,23.70
2024-02-19T23:10:04.941Z,34.50
2024-02-19T23:13:10.092Z,27.50
2024-02-19T23:16:18.028Z,31.27
2024-02-19T23:22:28.402Z,29.48
2024-02-19T23:25:33.872Z,30.48
2024-02-19T23:28:39.125Z,30.27
2024-02-19T23:31:47.640Z,33.63
2024-02-19T23:34:52.834Z,35.42
2024-02-19T23:37:58.260Z,33.17
2024-02-19T23:41:03.623Z,33.00
2024-02-19T23:44:08.868Z,28.02
2024-02-19T23:47:16.788Z,33.42
2024-02-19T23:50:21.990Z,35.47
2024-02-19T23:53:28.283Z,31.25
2024-02-19T23:56:33.883Z,30.88
2024-02-19T23:59:39.171Z,33.88
